createdAt,value
2023-01-21T00:00:18.983Z,15.94
2023-01-21T00:05:22.166Z,15.91
2023-01-21T00:10:25.348Z,15.93
2023-01-21T00:15:28.654Z,15.87
2023-01-21T00:20:32.158Z,15.87
2023-01-21T00:25:35.407Z,15.86
2023-01-21T00:30:38.498Z,15.79
2023-01-21T00:35:41.531Z,15.77
2023-01-21T00:40:44.978Z,15.69
2023-01-21T00:45:48.668Z,15.63
2023-01-21T00:50:51.978Z,15.64
2023-01-21T00:55:59.929Z,15.69
2023-01-21T01:01:09.701Z,15.69
2023-01-21T01:06:26.318Z,15.68
2023-01-21T01:11:41.057Z,15.66
2023-01-21T01:16:44.317Z,15.67
2023-01-21T01:21:47.707Z,15.72
2023-01-21T01:26:58.657Z,15.74
2023-01-21T01:32:17.437Z,15.77
2023-01-21T01:37:20.453Z,15.76
2023-01-21T01:42:23.591Z,15.77
2023-01-21T01:47:41.518Z,15.83
2023-01-21T01:52:45.552Z,15.87
2023-01-21T01:57:52.753Z,15.89
2023-01-21T02:02:56.851Z,15.91
2023-01-21T02:08:01.188Z,15.90
2023-01-21T02:13:12.487Z,15.87
2023-01-21T02:18:46.178Z,15.84
2023-01-21T02:24:22.898Z,15.85
2023-01-21T02:29:47.718Z,15.82
2023-01-21T02:34:53.666Z,15.83
2023-01-21T02:40:11.504Z,15.80
2023-01-21T02:45:42.146Z,15.81
2023-01-21T02:50:49.402Z,15.80
2023-01-21T02:55:53.702Z,15.78
2023-01-21T03:01:34.361Z,15.77
2023-01-21T03:06:50.653Z,15.76
2023-01-21T03:12:15.928Z,15.75
2023-01-21T03:17:46.640Z,15.70
2023-01-21T03:22:56.840Z,15.67
2023-01-21T03:28:05.178Z,15.58
2023-01-21T03:33:11.404Z,15.57
2023-01-21T03:38:29.581Z,15.55
2023-01-21T03:43:33.063Z,15.52
2023-01-21T03:48:55.042Z,15.48
2023-01-21T03:54:00.373Z,15.45
2023-01-21T03:59:03.675Z,15.47
2023-01-21T04:04:06.952Z,15.47
2023-01-21T04:09:10.179Z,15.39
2023-01-21T04:14:13.089Z,15.18
2023-01-21T04:19:15.978Z,14.89
2023-01-21T04:24:19.218Z,14.64
2023-01-21T04:29:22.467Z,14.52
2023-01-21T04:34:25.629Z,14.46
2023-01-21T04:39:28.739Z,14.35
2023-01-21T04:44:31.929Z,14.23
2023-01-21T04:49:34.845Z,14.07
2023-01-21T04:54:37.951Z,13.97
2023-01-21T04:59:41.196Z,13.84
2023-01-21T05:04:44.271Z,13.79
2023-01-21T05:09:47.574Z,13.69
2023-01-21T05:14:54.670Z,13.61
2023-01-21T05:19:59.405Z,13.55
2023-01-21T05:25:02.715Z,13.53
2023-01-21T05:30:07.009Z,13.58
2023-01-21T05:35:10.763Z,13.60
2023-01-21T05:40:18.338Z,13.62
2023-01-21T05:45:21.850Z,13.65
2023-01-21T05:50:24.838Z,13.70
2023-01-21T05:55:28.073Z,13.76
2023-01-21T06:00:31.557Z,13.84
2023-01-21T06:05:37.426Z,13.90
2023-01-21T06:10:41.126Z,14.01
2023-01-21T06:15:44.385Z,14.23
2023-01-21T06:20:48.077Z,14.64
2023-01-21T06:26:03.413Z,15.30
2023-01-21T06:31:22.227Z,16.21
2023-01-21T06:36:25.682Z,15.93
2023-01-21T06:41:28.636Z,15.62
2023-01-21T06:46:31.869Z,15.48
2023-01-21T06:51:35.916Z,15.40
2023-01-21T06:56:38.960Z,15.41
2023-01-21T07:01:41.954Z,15.50
2023-01-21T07:06:55.017Z,15.61
2023-01-21T07:12:15.929Z,15.66
2023-01-21T07:17:19.021Z,15.69
2023-01-21T07:22:22.156Z,15.75
2023-01-21T07:27:25.267Z,15.79
2023-01-21T07:32:28.543Z,15.85
2023-01-21T07:37:31.606Z,15.89
2023-01-21T07:42:34.747Z,15.95
2023-01-21T07:47:38.256Z,16.02
2023-01-21T07:52:42.437Z,16.09
2023-01-21T07:57:45.312Z,16.21
2023-01-21T08:02:51.346Z,16.28
2023-01-21T08:07:57.746Z,16.38
2023-01-21T08:13:01.111Z,16.48
2023-01-21T08:18:14.845Z,16.56
2023-01-21T08:23:33.658Z,16.60
2023-01-21T08:28:36.940Z,16.66
2023-01-21T08:33:41.505Z,16.73
2023-01-21T08:39:01.302Z,16.79
2023-01-21T08:44:20.488Z,16.87
2023-01-21T08:49:23.456Z,16.94
2023-01-21T08:54:27.013Z,17.02
2023-01-21T08:59:30.252Z,17.05
2023-01-21T09:04:33.417Z,17.10
2023-01-21T09:09:36.699Z,17.18
2023-01-21T09:14:41.360Z,17.27
2023-01-21T09:19:44.720Z,17.31
2023-01-21T09:24:48.325Z,17.40
2023-01-21T09:29:51.696Z,17.41
2023-01-21T09:35:04.821Z,17.46
2023-01-21T09:40:26.836Z,17.39
2023-01-21T09:45:31.224Z,17.28
2023-01-21T09:50:38.423Z,17.31
2023-01-21T09:55:46.339Z,17.34
2023-01-21T10:00:57.017Z,17.30
2023-01-21T10:06:44.076Z,17.24
2023-01-21T10:12:28.004Z,17.16
2023-01-21T10:17:53.088Z,17.08
2023-01-21T10:23:11.678Z,17.10
2023-01-21T10:28:31.380Z,17.16
2023-01-21T10:33:35.828Z,17.17
2023-01-21T10:38:52.002Z,17.22
2023-01-21T10:44:04.164Z,17.20
2023-01-21T10:49:48.939Z,17.19
2023-01-21T10:55:16.543Z,17.19
2023-01-21T11:00:36.956Z,17.13
2023-01-21T11:06:00.046Z,17.14
2023-01-21T11:11:05.955Z,17.17
2023-01-21T11:16:38.005Z,17.18
2023-01-21T11:21:58.060Z,17.17
2023-01-21T11:27:01.956Z,17.16
2023-01-21T11:32:21.978Z,17.15
2023-01-21T11:37:28.220Z,17.08
2023-01-21T11:42:32.606Z,17.05
2023-01-21T11:47:50.197Z,17.04
2023-01-21T11:53:08.609Z,17.00
2023-01-21T11:58:22.919Z,16.93
2023-01-21T12:03:38.750Z,16.88
2023-01-21T12:08:42.266Z,16.89
2023-01-21T12:14:05.493Z,16.84
2023-01-21T12:19:33.110Z,16.83
2023-01-21T12:25:25.676Z,16.83
2023-01-21T12:31:03.196Z,16.82
2023-01-21T12:36:19.701Z,16.79
2023-01-21T12:41:33.567Z,16.78
2023-01-21T12:46:42.572Z,16.75
2023-01-21T12:51:54.747Z,16.69
2023-01-21T12:57:06.781Z,16.68
2023-01-21T13:02:33.573Z,16.63
2023-01-21T13:07:51.753Z,16.64
2023-01-21T13:13:22.833Z,16.65
2023-01-21T13:18:38.049Z,16.69
2023-01-21T13:23:51.764Z,16.68
2023-01-21T13:29:02.108Z,16.67
2023-01-21T13:34:34.155Z,16.68
2023-01-21T13:39:44.332Z,16.67
2023-01-21T13:45:14.497Z,16.63
2023-01-21T13:50:48.985Z,16.53
2023-01-21T13:56:19.936Z,16.48
2023-01-21T14:01:39.715Z,16.36
2023-01-21T14:07:02.645Z,16.33
2023-01-21T14:12:12.621Z,16.29
2023-01-21T14:17:27.502Z,16.25
2023-01-21T14:22:49.838Z,16.14
2023-01-21T14:28:10.394Z,16.06
2023-01-21T14:33:17.871Z,16.01
2023-01-21T14:38:33.863Z,15.92
2023-01-21T14:43:37.104Z,15.83
2023-01-21T14:48:42.101Z,15.72
2023-01-21T14:53:59.971Z,15.61
2023-01-21T14:59:29.981Z,15.45
2023-01-21T15:05:17.171Z,15.31
2023-01-21T15:10:26.885Z,15.16
2023-01-21T15:15:35.465Z,15.05
2023-01-21T15:20:51.288Z,14.92
2023-01-21T15:26:30.045Z,14.80
2023-01-21T15:31:45.090Z,14.68
2023-01-21T15:36:51.485Z,14.57
2023-01-21T15:42:13.251Z,14.49
2023-01-21T15:47:28.924Z,14.50
2023-01-21T15:52:32.354Z,14.46
2023-01-21T15:57:44.604Z,14.45
2023-01-21T16:03:27.759Z,14.45
2023-01-21T16:08:40.591Z,14.43
2023-01-21T16:14:00.499Z,14.43
2023-01-21T16:19:09.881Z,14.42
2023-01-21T16:24:17.947Z,14.44
2023-01-21T16:29:22.026Z,14.43
2023-01-21T16:34:41.789Z,14.43
2023-01-21T16:39:45.692Z,14.43
2023-01-21T16:44:49.113Z,14.40
2023-01-21T16:49:52.925Z,14.41
2023-01-21T16:54:56.472Z,14.42
2023-01-21T16:59:59.973Z,14.45
2023-01-21T17:05:03.903Z,14.45
2023-01-21T17:10:17.684Z,14.46
2023-01-21T17:15:43.722Z,14.47
2023-01-21T17:21:22.160Z,14.48
2023-01-21T17:26:47.537Z,14.47
2023-01-21T17:32:03.615Z,14.45
2023-01-21T17:37:43.985Z,14.43
2023-01-21T17:42:47.282Z,14.42
2023-01-21T17:48:08.030Z,14.40
2023-01-21T17:53:28.457Z,14.39
2023-01-21T17:58:31.667Z,14.39
2023-01-21T18:03:35.051Z,14.37
2023-01-21T18:08:38.227Z,14.35
2023-01-21T18:13:41.370Z,14.36
2023-01-21T18:18:44.774Z,14.35
2023-01-21T18:23:49.789Z,14.34
2023-01-21T18:29:05.348Z,14.32
2023-01-21T18:34:30.218Z,14.32
2023-01-21T18:39:33.404Z,14.31
2023-01-21T18:44:36.520Z,14.28
2023-01-21T18:49:39.831Z,14.28
2023-01-21T18:54:55.800Z,14.26
2023-01-21T19:00:28.251Z,14.23
2023-01-21T19:05:35.837Z,14.22
2023-01-21T19:10:39.438Z,14.19
2023-01-21T19:15:43.051Z,14.20
2023-01-21T19:20:58.864Z,14.17
2023-01-21T19:26:21.853Z,14.16
2023-01-21T19:31:25.419Z,14.16
2023-01-21T19:36:28.756Z,14.15
2023-01-21T19:41:33.148Z,14.15
2023-01-21T19:46:36.555Z,14.14
2023-01-21T19:51:39.992Z,14.13
2023-01-21T19:56:43.403Z,14.12
2023-01-21T20:01:46.729Z,14.12
2023-01-21T20:06:50.335Z,14.11
2023-01-21T20:11:53.700Z,14.11
2023-01-21T20:16:56.759Z,14.08
2023-01-21T20:22:13.215Z,14.05
2023-01-21T20:27:33.556Z,13.97
2023-01-21T20:32:36.786Z,13.92
2023-01-21T20:37:39.853Z,13.90
2023-01-21T20:42:43.087Z,13.88
2023-01-21T20:47:52.948Z,13.91
2023-01-21T20:52:56.201Z,13.92
2023-01-21T20:57:59.588Z,13.90
2023-01-21T21:03:02.975Z,13.90
2023-01-21T21:08:06.244Z,13.86
2023-01-21T21:13:09.350Z,13.83
2023-01-21T21:18:13.514Z,13.80
2023-01-21T21:23:16.693Z,13.79
2023-01-21T21:28:20.311Z,13.80
2023-01-21T21:33:24.399Z,13.80
2023-01-21T21:38:27.659Z,13.75
2023-01-21T21:43:30.912Z,13.75
2023-01-21T21:48:34.344Z,13.72
2023-01-21T21:53:39.260Z,13.68
2023-01-21T21:58:43.942Z,13.63
2023-01-21T22:03:56.551Z,13.59
2023-01-21T22:09:17.006Z,13.53
2023-01-21T22:14:20.023Z,13.52
2023-01-21T22:19:23.282Z,13.58
2023-01-21T22:24:26.301Z,13.60
2023-01-21T22:29:29.889Z,13.64
2023-01-21T22:34:33.862Z,13.66
2023-01-21T22:39:38.635Z,13.67
2023-01-21T22:44:41.779Z,13.65
2023-01-21T22:49:44.969Z,13.63
2023-01-21T22:54:49.573Z,13.56
2023-01-21T22:59:53.181Z,13.53
2023-01-21T23:04:56.515Z,13.47
2023-01-21T23:10:00.115Z,13.43
2023-01-21T23:15:03.486Z,13.39
2023-01-21T23:20:06.973Z,13.32
2023-01-21T23:25:13.384Z,13.27
2023-01-21T23:30:25.555Z,13.26
2023-01-21T23:35:42.586Z,13.24
2023-01-21T23:40:47.522Z,13.26
2023-01-21T23:45:50.462Z,13.25
2023-01-21T23:50:53.514Z,13.28
2023-01-21T23:56:08.044Z,13.30
